Time;durP1;ratioP1;P1;durP2;ratioP2;P2;SDS_P1;SDS_P2;PMS_P1;PMS_P2;Temp;Humidity;BMP_temperature;BMP_pressure;BME280_temperature;BME280_humidity;BME280_pressure;Samples;Min_cycle;Max_cycle;Signal;HPM_P1;HPM_P2
2021/03/24 00:01:41;;;;;;;32.13;17.52;;;6.30;99.90;;;;;;5074191;28;20033;-70
2021/03/24 00:04:07;;;;;;;31.35;16.80;;;6.30;99.90;;;;;;5074891;28;20119;-71
2021/03/24 00:06:33;;;;;;;28.67;17.48;;;6.30;99.90;;;;;;5076033;28;20457;-69
2021/03/24 00:09:00;;;;;;;35.55;17.65;;;6.30;99.90;;;;;;5077490;28;20027;-67
2021/03/24 00:11:25;;;;;;;30.17;16.35;;;6.40;99.90;;;;;;5056412;28;20032;-69
2021/03/24 00:13:51;;;;;;;33.08;17.55;;;6.20;99.90;;;;;;5058714;28;20369;-71
2021/03/24 00:16:17;;;;;;;30.73;18.98;;;6.00;99.90;;;;;;5057423;28;20152;-71
2021/03/24 00:18:43;;;;;;;31.85;17.60;;;6.00;99.90;;;;;;5056079;28;20059;-68
2021/03/24 00:21:09;;;;;;;34.65;18.15;;;6.10;99.90;;;;;;5056052;28;20025;-69
2021/03/24 00:23:35;;;;;;;30.55;18.05;;;6.10;99.90;;;;;;5054738;28;20029;-68
2021/03/24 00:26:01;;;;;;;29.77;18.27;;;6.00;99.90;;;;;;5053588;28;20075;-69
2021/03/24 00:28:27;;;;;;;32.92;19.65;;;6.00;99.90;;;;;;5054221;28;20033;-70
2021/03/24 00:30:53;;;;;;;34.65;20.02;;;5.80;99.90;;;;;;5055250;28;20052;-68
2021/03/24 00:33:23;;;;;;;33.95;19.13;;;5.70;99.90;;;;;;5056701;28;20028;-73
2021/03/24 00:35:49;;;;;;;32.70;18.52;;;5.70;99.90;;;;;;5056261;28;20029;-69
2021/03/24 00:38:18;;;;;;;30.95;18.63;;;5.70;99.90;;;;;;5056463;28;20029;-73
2021/03/24 00:40:47;;;;;;;37.42;20.02;;;5.70;99.90;;;;;;5055111;28;20477;-69
2021/03/24 00:43:13;;;;;;;31.00;18.42;;;5.80;99.90;;;;;;5055526;28;20040;-68
2021/03/24 00:45:40;;;;;;;38.88;20.75;;;5.90;99.90;;;;;;5055867;28;20029;-71
2021/03/24 00:48:08;;;;;;;29.00;18.65;;;5.80;99.90;;;;;;5055238;28;20036;-73
2021/03/24 00:50:35;;;;;;;32.30;18.85;;;5.90;99.90;;;;;;5054775;28;20441;-69
2021/03/24 00:53:02;;;;;;;35.35;19.65;;;5.70;99.90;;;;;;5053233;28;20035;-71
2021/03/24 00:55:28;;;;;;;28.52;18.20;;;5.50;99.90;;;;;;5052878;28;20028;-69
2021/03/24 00:57:54;;;;;;;32.45;19.13;;;5.60;99.90;;;;;;5053051;28;20033;-68
2021/03/24 01:00:24;;;;;;;34.75;19.08;;;5.70;99.90;;;;;;5054628;28;20101;-72
2021/03/24 01:02:50;;;;;;;32.28;18.15;;;5.60;99.90;;;;;;5054325;28;20029;-69
2021/03/24 01:05:18;;;;;;;39.67;18.48;;;5.70;99.90;;;;;;5055342;28;20086;-68
2021/03/24 01:07:45;;;;;;;35.28;18.92;;;5.70;99.90;;;;;;5053630;28;20067;-69
2021/03/24 01:10:13;;;;;;;30.48;17.50;;;5.60;99.90;;;;;;5062721;28;20047;-71
2021/03/24 01:12:39;;;;;;;36.72;19.55;;;5.50;99.90;;;;;;5074785;28;20024;-69
2021/03/24 01:15:06;;;;;;;38.35;19.30;;;5.30;99.90;;;;;;5071596;28;20112;-70
2021/03/24 01:17:32;;;;;;;34.28;19.20;;;5.20;99.90;;;;;;5037138;28;20021;-69
2021/03/24 01:19:57;;;;;;;34.08;19.15;;;5.10;99.90;;;;;;5035713;28;20115;-70
2021/03/24 01:22:23;;;;;;;32.42;18.13;;;5.10;99.90;;;;;;5035933;28;20489;-68
2021/03/24 01:24:49;;;;;;;33.53;19.55;;;5.10;99.90;;;;;;5053648;28;20462;-68
2021/03/24 01:27:14;;;;;;;34.35;19.58;;;5.10;99.90;;;;;;5036869;28;20033;-71
2021/03/24 01:29:40;;;;;;;34.13;18.80;;;5.20;99.90;;;;;;5037349;28;20033;-67
2021/03/24 01:32:06;;;;;;;33.83;19.27;;;5.30;99.90;;;;;;5054190;28;20036;-68
2021/03/24 01:34:32;;;;;;;32.88;17.02;;;5.10;99.90;;;;;;5038237;28;20087;-72
2021/03/24 01:36:57;;;;;;;35.05;19.23;;;4.90;99.90;;;;;;5056149;28;20025;-71
2021/03/24 01:39:23;;;;;;;34.72;17.83;;;5.00;99.90;;;;;;5037946;28;20104;-71
2021/03/24 01:41:48;;;;;;;31.80;17.10;;;5.10;99.90;;;;;;5036681;28;20036;-70
2021/03/24 01:44:14;;;;;;;31.75;19.20;;;5.10;99.90;;;;;;5037096;28;20128;-68
2021/03/24 01:46:46;;;;;;;33.17;19.05;;;5.00;99.90;;;;;;5037470;28;20072;-70
2021/03/24 01:49:14;;;;;;;30.00;17.60;;;4.90;99.90;;;;;;5057085;28;20496;-69
2021/03/24 01:51:49;;;;;;;33.97;18.13;;;5.00;99.90;;;;;;5039249;28;20519;-69
2021/03/24 01:54:25;;;;;;;30.52;18.05;;;4.80;99.90;;;;;;5038121;28;20024;-70
2021/03/24 01:56:56;;;;;;;35.95;18.77;;;4.70;99.90;;;;;;5036127;28;20033;-77
2021/03/24 01:59:22;;;;;;;33.33;18.10;;;4.70;99.90;;;;;;5037716;28;20053;-68
2021/03/24 02:01:47;;;;;;;37.40;18.50;;;4.60;99.90;;;;;;5036919;28;20274;-73
2021/03/24 02:04:13;;;;;;;31.38;18.70;;;4.70;99.90;;;;;;5036673;28;20535;-68
2021/03/24 02:06:58;;;;;;;38.92;17.77;;;4.50;99.90;;;;;;5053981;28;20428;-68
2021/03/24 02:09:37;;;;;;;29.05;16.85;;;4.50;99.90;;;;;;5046606;28;20029;-69
2021/03/24 02:12:03;;;;;;;29.35;16.85;;;4.60;99.90;;;;;;5034597;28;20036;-69
2021/03/24 02:14:34;;;;;;;32.42;18.20;;;4.60;99.90;;;;;;5016364;28;20030;-69
2021/03/24 02:17:02;;;;;;;33.08;17.95;;;4.60;99.90;;;;;;5035105;28;20069;-69
2021/03/24 02:19:50;;;;;;;32.38;17.80;;;4.50;99.90;;;;;;5016835;28;20030;-69
2021/03/24 02:22:20;;;;;;;35.10;16.10;;;4.60;99.90;;;;;;4971435;28;20034;-75
2021/03/24 02:24:56;;;;;;;32.78;17.10;;;4.70;99.90;;;;;;5017377;28;20028;-70
2021/03/24 02:27:26;;;;;;;26.88;17.73;;;4.60;99.90;;;;;;5017685;28;20378;-70
2021/03/24 02:30:07;;;;;;;31.88;18.15;;;4.70;99.90;;;;;;5015829;28;20028;-68
2021/03/24 02:32:37;;;;;;;34.38;17.17;;;4.50;99.90;;;;;;5016504;28;20030;-71
2021/03/24 02:35:11;;;;;;;29.92;18.17;;;4.50;99.90;;;;;;5015624;28;20026;-68
2021/03/24 02:37:37;;;;;;;33.80;18.02;;;4.50;99.90;;;;;;5016364;28;20037;-69
2021/03/24 02:40:09;;;;;;;31.00;18.10;;;4.60;99.90;;;;;;5014601;28;20099;-69
2021/03/24 02:42:37;;;;;;;29.23;17.40;;;4.60;99.90;;;;;;5034225;28;20079;-70
2021/03/24 02:45:06;;;;;;;30.30;17.10;;;4.70;99.90;;;;;;5015481;28;20034;-69
2021/03/24 02:47:31;;;;;;;31.70;17.50;;;4.80;99.90;;;;;;5016118;28;20125;-69
2021/03/24 02:49:57;;;;;;;32.53;17.52;;;4.70;99.90;;;;;;5015319;28;20489;-71
2021/03/24 02:52:23;;;;;;;31.67;17.92;;;4.80;99.90;;;;;;5033311;28;20422;-71
2021/03/24 02:54:50;;;;;;;34.50;18.88;;;4.80;99.90;;;;;;5014092;28;20053;-69
2021/03/24 02:57:15;;;;;;;32.75;17.58;;;4.50;99.90;;;;;;5015298;28;20045;-70
2021/03/24 02:59:41;;;;;;;32.05;17.60;;;4.60;99.90;;;;;;5016086;28;20025;-70
2021/03/24 03:02:23;;;;;;;34.20;18.05;;;4.60;99.90;;;;;;5015230;28;20295;-69
2021/03/24 03:04:53;;;;;;;33.30;17.83;;;4.50;99.90;;;;;;5015332;28;20030;-70
2021/03/24 03:07:31;;;;;;;31.33;17.52;;;4.50;99.90;;;;;;5015447;28;20034;-71
2021/03/24 03:10:07;;;;;;;30.73;17.35;;;4.40;99.90;;;;;;5033751;28;20032;-73
2021/03/24 03:12:35;;;;;;;33.20;16.80;;;4.40;99.90;;;;;;5016692;28;20025;-69
2021/03/24 03:15:08;;;;;;;32.72;17.52;;;4.50;99.90;;;;;;5015897;28;20033;-71
2021/03/24 03:17:47;;;;;;;28.35;16.27;;;4.50;99.90;;;;;;5046946;28;20431;-76
2021/03/24 03:20:19;;;;;;;36.75;17.90;;;4.50;99.90;;;;;;5054200;28;20021;-68
2021/03/24 03:22:58;;;;;;;32.85;18.15;;;4.40;99.90;;;;;;5035761;28;20071;-68
2021/03/24 03:25:28;;;;;;;33.92;19.13;;;4.50;99.90;;;;;;5035878;28;20043;-70
2021/03/24 03:27:57;;;;;;;31.40;18.38;;;4.30;99.90;;;;;;5036667;28;20029;-75
2021/03/24 03:30:27;;;;;;;37.35;17.63;;;4.20;99.90;;;;;;5037413;28;20036;-69
2021/03/24 03:32:56;;;;;;;29.08;17.98;;;4.30;99.90;;;;;;5034948;28;20470;-69
2021/03/24 03:35:24;;;;;;;34.00;17.52;;;4.40;99.90;;;;;;5053157;28;20044;-68
2021/03/24 03:37:57;;;;;;;33.40;18.17;;;4.40;99.90;;;;;;5034752;28;20025;-69
2021/03/24 03:40:25;;;;;;;32.85;18.55;;;4.50;99.90;;;;;;5034879;28;20025;-69
2021/03/24 03:42:53;;;;;;;37.78;18.50;;;4.50;99.90;;;;;;5052222;28;20041;-70
2021/03/24 03:45:20;;;;;;;39.10;19.00;;;4.60;99.90;;;;;;5035649;28;20124;-73
2021/03/24 03:47:46;;;;;;;32.60;17.23;;;4.60;99.90;;;;;;5054759;28;20027;-70
2021/03/24 03:50:25;;;;;;;33.65;18.85;;;4.60;99.90;;;;;;5053916;28;20111;-68
2021/03/24 03:53:15;;;;;;;30.45;18.20;;;4.50;99.90;;;;;;5056872;28;20037;-69
2021/03/24 03:55:46;;;;;;;31.25;17.45;;;4.50;99.90;;;;;;5039542;28;20124;-68
2021/03/24 03:58:31;;;;;;;31.97;18.10;;;4.50;99.90;;;;;;5039152;28;20029;-69
2021/03/24 04:01:35;;;;;;;35.90;19.80;;;4.40;99.90;;;;;;5048898;28;20268;-70
2021/03/24 04:04:21;;;;;;;33.25;17.98;;;4.10;99.90;;;;;;5019300;28;20033;-69
2021/03/24 04:07:13;;;;;;;33.33;17.73;;;3.90;99.90;;;;;;5017897;28;20053;-69
2021/03/24 04:09:40;;;;;;;33.20;17.60;;;4.00;99.90;;;;;;5019566;28;20025;-68
2021/03/24 04:12:17;;;;;;;35.78;18.50;;;3.60;99.90;;;;;;5017717;28;20375;-70
2021/03/24 04:14:44;;;;;;;34.85;19.85;;;3.70;99.90;;;;;;5019102;28;20056;-68
2021/03/24 04:17:15;;;;;;;36.08;18.70;;;3.80;99.90;;;;;;5034830;28;20053;-68
2021/03/24 04:19:46;;;;;;;35.58;18.15;;;4.00;99.90;;;;;;5036566;28;20025;-69
2021/03/24 04:22:13;;;;;;;32.25;18.50;;;4.00;99.90;;;;;;5024821;28;20064;-69
2021/03/24 04:24:43;;;;;;;38.45;18.80;;;4.00;99.90;;;;;;5055296;28;20501;-70
2021/03/24 04:27:12;;;;;;;32.60;18.83;;;4.10;99.90;;;;;;5055429;28;20064;-69
2021/03/24 04:29:43;;;;;;;36.55;17.75;;;4.10;99.90;;;;;;5038185;28;20029;-69
2021/03/24 04:32:10;;;;;;;34.67;20.67;;;4.00;99.90;;;;;;5055423;28;20036;-69
2021/03/24 04:34:37;;;;;;;30.77;18.08;;;3.80;99.90;;;;;;5056302;28;20029;-70
2021/03/24 04:37:25;;;;;;;39.97;19.70;;;3.80;99.90;;;;;;5037152;28;20060;-68
2021/03/24 04:40:13;;;;;;;32.95;18.33;;;3.90;99.90;;;;;;5055750;28;20086;-69
2021/03/24 04:42:53;;;;;;;31.63;18.75;;;4.00;99.90;;;;;;5040742;28;20483;-68
2021/03/24 04:45:36;;;;;;;35.90;18.98;;;4.00;99.90;;;;;;5036370;28;20470;-68
2021/03/24 04:48:08;;;;;;;32.08;18.98;;;3.90;99.90;;;;;;5037334;28;20543;-69
2021/03/24 04:50:40;;;;;;;30.48;18.15;;;3.80;99.90;;;;;;5038095;28;20370;-69
2021/03/24 04:53:07;;;;;;;33.60;19.08;;;3.80;99.90;;;;;;5037203;28;20029;-70
2021/03/24 04:55:35;;;;;;;34.58;19.83;;;3.70;99.90;;;;;;5036512;28;20041;-71
2021/03/24 04:58:03;;;;;;;36.83;19.55;;;3.50;99.90;;;;;;5018052;28;20124;-72
2021/03/24 05:00:39;;;;;;;28.50;17.83;;;3.60;99.90;;;;;;5019111;28;20029;-70
2021/03/24 05:03:12;;;;;;;39.53;20.10;;;3.40;99.90;;;;;;5017999;28;20422;-69
2021/03/24 05:05:44;;;;;;;34.50;19.33;;;3.40;99.90;;;;;;5018623;28;20083;-72
2021/03/24 05:08:29;;;;;;;35.88;18.90;;;3.50;99.90;;;;;;5017635;28;20033;-70
2021/03/24 05:10:59;;;;;;;33.55;18.27;;;3.50;99.90;;;;;;5022838;28;20024;-69
2021/03/24 05:13:33;;;;;;;32.05;17.75;;;3.60;99.90;;;;;;5036784;28;20040;-70
2021/03/24 05:16:07;;;;;;;33.72;19.20;;;3.50;99.90;;;;;;5038013;28;20048;-70
2021/03/24 05:18:34;;;;;;;34.35;19.23;;;3.70;99.90;;;;;;5055507;28;20536;-72
2021/03/24 05:21:17;;;;;;;37.28;19.98;;;3.40;99.90;;;;;;5052413;28;20469;-71
2021/03/24 05:23:47;;;;;;;33.28;17.90;;;3.40;99.90;;;;;;5053246;28;20052;-70
2021/03/24 05:26:48;;;;;;;34.42;18.48;;;3.60;99.90;;;;;;5052583;28;20035;-69
2021/03/24 05:29:19;;;;;;;32.83;18.60;;;3.40;99.90;;;;;;5043321;28;20041;-71
2021/03/24 05:31:48;;;;;;;36.35;20.10;;;3.40;99.90;;;;;;5053644;28;20021;-70
2021/03/24 05:34:29;;;;;;;40.55;19.35;;;3.50;99.90;;;;;;5053586;28;20032;-69
2021/03/24 05:36:55;;;;;;;41.38;21.10;;;3.30;99.90;;;;;;5053970;28;20032;-73
2021/03/24 05:39:27;;;;;;;31.33;18.13;;;3.10;99.90;;;;;;5053529;28;20116;-69
2021/03/24 05:42:05;;;;;;;;;;;3.10;99.90;;;;;;5053541;28;20047;-71
2021/03/24 05:45:06;;;;;;;34.13;18.08;;;3.40;99.90;;;;;;5053070;28;20023;-72
2021/03/24 05:47:52;;;;;;;37.30;19.40;;;3.50;99.90;;;;;;5055313;28;20029;-70
2021/03/24 05:50:48;;;;;;;35.42;20.45;;;3.40;99.90;;;;;;5054153;28;20099;-71
2021/03/24 05:53:33;;;;;;;33.40;19.58;;;3.40;99.90;;;;;;5053592;28;20470;-71
2021/03/24 05:56:18;;;;;;;33.22;18.92;;;3.40;99.90;;;;;;5053663;28;20040;-69
2021/03/24 05:59:09;;;;;;;36.97;17.67;;;3.40;99.90;;;;;;5053613;28;20115;-70
2021/03/24 06:02:12;;;;;;;29.27;17.75;;;3.50;99.90;;;;;;5052802;28;20025;-70
2021/03/24 06:04:59;;;;;;;47.08;18.25;;;3.70;99.90;;;;;;5011589;28;20033;-70
2021/03/24 06:07:49;;;;;;;43.53;18.30;;;4.00;99.90;;;;;;5053162;28;20060;-70
2021/03/24 06:10:50;;;;;;;35.03;17.60;;;4.10;99.90;;;;;;5054010;28;20053;-75
2021/03/24 06:13:18;;;;;;;33.33;18.55;;;4.00;99.90;;;;;;5056730;28;20037;-71
2021/03/24 06:15:52;;;;;;;33.95;19.52;;;4.00;99.90;;;;;;5062628;28;20481;-72
2021/03/24 06:18:56;;;;;;;38.22;19.98;;;3.90;99.90;;;;;;5072084;28;20489;-70
2021/03/24 06:21:42;;;;;;;35.28;19.25;;;3.80;99.90;;;;;;5072063;28;20025;-71
2021/03/24 06:24:18;;;;;;;38.92;18.88;;;3.70;99.90;;;;;;5073794;28;20032;-70
2021/03/24 06:27:06;;;;;;;41.40;20.13;;;3.80;99.90;;;;;;5074228;28;20086;-72
2021/03/24 06:29:44;;;;;;;35.25;20.27;;;3.70;99.90;;;;;;5072721;28;20028;-71
2021/03/24 06:32:28;;;;;;;42.60;19.77;;;3.90;99.90;;;;;;5061297;28;20025;-70
2021/03/24 06:35:10;;;;;;;37.30;19.83;;;4.10;99.90;;;;;;5053546;28;20036;-72
2021/03/24 06:37:57;;;;;;;35.13;20.13;;;4.10;99.90;;;;;;5052698;28;20059;-70
2021/03/24 06:40:41;;;;;;;33.53;19.77;;;4.20;99.90;;;;;;5051521;28;20171;-72
2021/03/24 06:43:15;;;;;;;34.67;18.85;;;4.50;99.90;;;;;;5050716;28;20033;-73
2021/03/24 06:45:53;;;;;;;33.58;19.17;;;4.60;99.90;;;;;;5052031;28;20037;-70
2021/03/24 06:48:22;;;;;;;36.20;18.73;;;4.60;99.90;;;;;;5052092;28;20046;-73
2021/03/24 06:51:39;;;;;;;38.50;19.40;;;4.80;99.90;;;;;;5055756;28;20021;-70
2021/03/24 06:54:22;;;;;;;37.47;18.67;;;5.20;99.90;;;;;;5012108;28;20037;-72
2021/03/24 06:57:30;;;;;;;38.53;18.80;;;5.40;99.90;;;;;;5057129;28;20033;-72
2021/03/24 07:00:10;;;;;;;41.50;20.35;;;5.30;99.90;;;;;;5056560;28;20029;-71
2021/03/24 07:03:14;;;;;;;36.80;20.55;;;5.50;99.90;;;;;;5054416;28;20029;-70
2021/03/24 07:05:46;;;;;;;39.65;20.85;;;5.60;99.90;;;;;;5052707;28;20028;-71
2021/03/24 07:08:26;;;;;;;35.88;20.52;;;5.50;99.90;;;;;;5053983;28;20025;-72
2021/03/24 07:11:19;;;;;;;42.25;20.70;;;5.60;99.90;;;;;;5055899;28;20060;-73
2021/03/24 07:14:23;;;;;;;40.40;19.83;;;6.20;99.90;;;;;;5051983;28;20036;-70
2021/03/24 07:17:23;;;;;;;42.95;20.45;;;6.80;99.90;;;;;;5052462;28;20048;-75
2021/03/24 07:20:13;;;;;;;30.88;19.23;;;6.80;99.90;;;;;;5053813;28;20028;-71
2021/03/24 07:23:16;;;;;;;41.95;21.75;;;6.50;99.90;;;;;;5052050;28;20029;-71
2021/03/24 07:25:48;;;;;;;40.20;20.95;;;7.00;99.90;;;;;;5053610;28;20039;-70
2021/03/24 07:28:33;;;;;;;37.78;21.70;;;6.90;99.90;;;;;;5055873;28;20497;-73
2021/03/24 07:31:36;;;;;;;40.03;21.95;;;7.40;99.90;;;;;;5055221;28;20029;-74
2021/03/24 07:34:22;;;;;;;39.00;20.05;;;8.10;99.90;;;;;;5055569;28;20106;-71
2021/03/24 07:37:19;;;;;;;41.13;21.23;;;7.90;99.90;;;;;;5055205;28;20029;-75
2021/03/24 07:40:19;;;;;;;40.50;21.65;;;7.70;99.90;;;;;;5055122;28;20029;-75
2021/03/24 07:43:18;;;;;;;39.78;21.65;;;7.90;99.90;;;;;;5056149;28;20045;-71
2021/03/24 07:46:18;;;;;;;39.22;21.00;;;7.80;99.90;;;;;;5055015;28;20071;-72
2021/03/24 07:49:19;;;;;;;49.20;22.67;;;8.30;99.90;;;;;;5055695;28;20087;-71
2021/03/24 07:52:16;;;;;;;47.30;23.07;;;8.10;99.90;;;;;;5057517;28;20174;-70
2021/03/24 07:55:01;;;;;;;40.83;22.20;;;8.10;99.90;;;;;;5057313;28;20083;-71
2021/03/24 07:57:43;;;;;;;36.42;21.90;;;8.50;99.90;;;;;;5054422;28;20028;-72
2021/03/24 08:00:09;;;;;;;43.80;23.05;;;9.20;99.80;;;;;;5054592;28;20040;-71
2021/03/24 08:02:54;;;;;;;37.92;20.65;;;9.40;98.50;;;;;;5067723;28;20046;-72
2021/03/24 08:05:29;;;;;;;34.15;21.42;;;9.10;99.20;;;;;;5073738;28;20025;-71
2021/03/24 08:08:20;;;;;;;34.25;20.85;;;9.30;99.10;;;;;;5075660;28;20029;-73
2021/03/24 08:11:03;;;;;;;39.42;20.58;;;10.10;97.80;;;;;;5065835;28;20025;-73
2021/03/24 08:13:29;;;;;;;36.70;22.08;;;9.60;98.40;;;;;;5075123;28;20071;-70
2021/03/24 08:16:16;;;;;;;36.50;20.35;;;9.30;99.00;;;;;;5064606;28;20041;-71
2021/03/24 08:18:45;;;;;;;40.30;21.33;;;9.50;98.90;;;;;;5072633;28;20100;-72
2021/03/24 08:22:06;;;;;;;38.42;21.90;;;10.00;97.90;;;;;;5063840;28;20025;-73
2021/03/24 08:24:43;;;;;;;38.72;20.55;;;10.70;96.50;;;;;;5007416;28;20018;-73
2021/03/24 08:27:21;;;;;;;40.65;20.30;;;10.70;95.90;;;;;;5058283;28;20021;-73
2021/03/24 08:30:09;;;;;;;38.53;21.83;;;10.80;95.40;;;;;;5068335;28;20039;-72
2021/03/24 08:33:15;;;;;;;35.50;20.63;;;10.80;95.60;;;;;;5066181;28;20029;-73
2021/03/24 08:35:55;;;;;;;31.30;19.90;;;10.80;95.40;;;;;;5060490;28;20041;-74
2021/03/24 08:38:59;;;;;;;34.83;20.53;;;10.40;96.10;;;;;;5064975;28;20024;-72
2021/03/24 08:41:58;;;;;;;38.10;21.60;;;10.80;95.50;;;;;;5067664;28;20035;-75
2021/03/24 08:44:54;;;;;;;29.92;18.10;;;10.10;96.10;;;;;;5064997;28;20028;-68
2021/03/24 08:47:24;;;;;;;29.73;19.05;;;11.20;99.90;;;;;;5064786;28;20028;-70
2021/03/24 08:49:54;;;;;;;32.40;18.67;;;11.80;95.80;;;;;;5065088;28;20074;-69
2021/03/24 08:52:30;;;;;;;30.10;17.90;;;12.10;99.20;;;;;;5053271;28;20029;-68
2021/03/24 08:55:25;;;;;;;31.85;19.83;;;12.70;93.70;;;;;;5056211;28;20017;-68
2021/03/24 08:58:13;;;;;;;37.28;22.20;;;12.30;94.60;;;;;;5058280;28;20105;-72
2021/03/24 09:00:42;;;;;;;36.45;22.27;;;12.90;91.00;;;;;;5072936;28;20025;-71
2021/03/24 09:03:38;;;;;;;30.63;19.70;;;13.00;90.20;;;;;;5066263;28;20024;-69
2021/03/24 09:06:17;;;;;;;37.40;21.98;;;13.10;91.70;;;;;;5073529;28;20044;-71
2021/03/24 09:08:55;;;;;;;30.52;19.05;;;12.60;92.00;;;;;;5074727;28;20031;-74
2021/03/24 09:11:21;;;;;;;33.95;19.98;;;12.80;92.10;;;;;;5074785;28;20028;-71
2021/03/24 09:13:55;;;;;;;28.60;20.23;;;12.80;91.80;;;;;;5059989;28;20025;-73
2021/03/24 09:16:46;;;;;;;31.48;20.83;;;13.50;90.30;;;;;;5059465;28;20056;-73
2021/03/24 09:19:17;;;;;;;;;;;13.60;89.00;;;;;;5088186;28;20032;-73
2021/03/24 09:22:06;;;;;;;33.10;20.13;;;13.70;87.60;;;;;;5064933;28;19915;-70
2021/03/24 09:25:16;;;;;;;36.25;19.63;;;12.90;90.30;;;;;;5056041;28;20087;-71
2021/03/24 09:27:54;;;;;;;29.48;19.75;;;13.20;90.10;;;;;;5022601;28;20098;-71
2021/03/24 09:30:34;;;;;;;34.45;21.60;;;13.50;90.80;;;;;;5057960;28;20428;-72
2021/03/24 09:33:26;;;;;;;25.90;19.17;;;13.70;82.20;;;;;;5061471;28;20036;-72
2021/03/24 09:36:29;;;;;;;32.20;19.02;;;14.00;81.60;;;;;;5047280;28;20123;-71
2021/03/24 09:38:57;;;;;;;30.73;19.33;;;14.40;80.00;;;;;;5061875;28;20036;-72
2021/03/24 09:41:39;;;;;;;29.80;19.88;;;14.50;78.90;;;;;;5056168;28;20043;-70
2021/03/24 09:44:14;;;;;;;30.60;20.48;;;13.80;79.90;;;;;;5068569;28;20536;-71
2021/03/24 09:46:47;;;;;;;30.20;20.40;;;14.00;81.30;;;;;;5056309;28;20094;-71
2021/03/24 09:49:34;;;;;;;30.48;20.50;;;14.40;81.20;;;;;;5056766;28;20029;-69
2021/03/24 09:52:17;;;;;;;35.00;21.15;;;14.80;79.90;;;;;;5067196;28;20050;-71
2021/03/24 09:55:21;;;;;;;30.25;20.98;;;15.10;74.40;;;;;;5064841;28;20104;-73
2021/03/24 09:58:01;;;;;;;31.60;18.58;;;13.60;79.70;;;;;;5064959;28;20033;-72
2021/03/24 10:00:28;;;;;;;27.80;20.10;;;13.80;80.60;;;;;;5052996;28;20111;-73
2021/03/24 10:02:58;;;;;;;29.30;21.42;;;14.10;78.10;;;;;;5069585;28;20449;-72
2021/03/24 10:05:42;;;;;;;26.85;18.48;;;14.40;77.30;;;;;;5058216;28;20036;-72
2021/03/24 10:08:17;;;;;;;28.25;18.90;;;14.80;78.40;;;;;;5059400;28;20029;-73
2021/03/24 10:10:44;;;;;;;27.42;17.50;;;14.60;78.70;;;;;;5065937;28;20075;-73
2021/03/24 10:13:24;;;;;;;30.13;19.38;;;14.40;77.50;;;;;;5067610;28;20041;-71
2021/03/24 10:16:29;;;;;;;31.55;19.30;;;14.50;77.30;;;;;;5057741;28;20073;-73
2021/03/24 10:19:16;;;;;;;28.58;17.50;;;14.80;75.80;;;;;;5025683;28;20053;-73
2021/03/24 10:21:52;;;;;;;28.42;18.23;;;15.40;72.90;;;;;;5068904;28;20028;-72
2021/03/24 10:24:28;;;;;;;26.75;17.85;;;16.10;69.30;;;;;;5070165;28;20480;-71
2021/03/24 10:27:02;;;;;;;27.77;19.13;;;15.80;70.20;;;;;;5053242;28;20045;-71
2021/03/24 10:29:52;;;;;;;25.30;17.65;;;16.10;69.50;;;;;;5048372;28;20572;-71
2021/03/24 10:32:40;;;;;;;27.50;18.02;;;16.50;68.80;;;;;;5048432;28;20025;-73
2021/03/24 10:35:26;;;;;;;28.17;17.77;;;17.40;69.00;;;;;;5053579;28;20116;-73
2021/03/24 10:38:11;;;;;;;24.67;17.83;;;17.40;64.80;;;;;;5081021;28;20111;-71
2021/03/24 10:40:51;;;;;;;28.42;17.75;;;17.80;61.90;;;;;;5054961;28;20086;-75
2021/03/24 10:43:30;;;;;;;30.30;17.65;;;17.30;62.60;;;;;;5052445;28;20484;-74
2021/03/24 10:46:18;;;;;;;25.70;16.33;;;17.50;61.90;;;;;;5048714;28;20502;-74
2021/03/24 10:48:55;;;;;;;27.52;16.75;;;17.40;61.90;;;;;;5050196;28;20049;-72
2021/03/24 10:51:53;;;;;;;24.08;15.85;;;17.10;61.90;;;;;;5046685;28;20098;-72
2021/03/24 10:54:44;;;;;;;25.00;15.40;;;17.00;61.10;;;;;;5039209;28;20051;-72
2021/03/24 10:57:41;;;;;;;21.33;14.43;;;16.60;61.80;;;;;;5047469;28;20041;-70
2021/03/24 11:00:20;;;;;;;21.17;14.77;;;16.60;64.70;;;;;;5050946;28;20291;-73
2021/03/24 11:02:58;;;;;;;20.63;14.13;;;16.60;62.30;;;;;;5052954;28;20021;-71
2021/03/24 11:05:50;;;;;;;19.10;13.35;;;17.50;61.70;;;;;;5062552;28;20111;-71
2021/03/24 11:08:37;;;;;;;21.80;13.38;;;17.90;63.10;;;;;;5071660;28;20071;-73
2021/03/24 11:11:16;;;;;;;20.33;14.32;;;17.10;59.90;;;;;;5072321;28;20188;-69
2021/03/24 11:14:26;;;;;;;17.60;13.20;;;16.90;61.30;;;;;;5052346;28;20039;-70
2021/03/24 11:17:05;;;;;;;20.30;12.43;;;17.60;60.30;;;;;;5042765;28;20125;-72
2021/03/24 11:19:39;;;;;;;22.15;14.88;;;18.10;59.10;;;;;;5062060;28;20051;-71
2021/03/24 11:22:14;;;;;;;19.85;14.80;;;18.00;57.20;;;;;;5057489;28;20025;-71
2021/03/24 11:24:55;;;;;;;22.60;14.25;;;17.70;59.30;;;;;;5052712;28;20027;-70
2021/03/24 11:27:23;;;;;;;19.67;14.63;;;18.40;60.30;;;;;;5090098;28;20107;-71
2021/03/24 11:30:07;;;;;;;22.67;14.63;;;18.80;56.60;;;;;;5092372;28;20028;-71
2021/03/24 11:32:45;;;;;;;20.13;14.45;;;19.00;56.40;;;;;;5080907;28;20025;-71
2021/03/24 11:35:38;;;;;;;19.65;14.25;;;18.40;55.60;;;;;;5069655;28;20033;-69
2021/03/24 11:38:15;;;;;;;27.23;15.15;;;19.10;57.10;;;;;;5054014;28;20143;-71
2021/03/24 11:40:45;;;;;;;22.85;16.42;;;17.70;57.80;;;;;;5093194;28;20684;-70
2021/03/24 11:43:24;;;;;;;23.73;14.40;;;17.20;58.50;;;;;;5091937;28;20039;-73
2021/03/24 11:46:06;;;;;;;21.17;15.55;;;17.80;58.00;;;;;;5092254;28;20024;-70
2021/03/24 11:49:01;;;;;;;21.38;14.07;;;17.50;57.30;;;;;;5091530;28;20032;-70
2021/03/24 11:51:46;;;;;;;23.23;14.57;;;18.20;58.50;;;;;;5061818;28;20226;-72
2021/03/24 11:54:22;;;;;;;22.33;15.93;;;18.70;56.90;;;;;;5091655;28;20028;-69
2021/03/24 11:56:58;;;;;;;23.20;15.68;;;17.50;57.10;;;;;;5071983;28;20078;-72
2021/03/24 11:59:54;;;;;;;23.27;15.38;;;17.60;59.80;;;;;;5070242;28;20062;-71
2021/03/24 12:02:22;;;;;;;22.17;13.65;;;18.40;56.90;;;;;;5072114;28;20059;-68
2021/03/24 12:05:03;;;;;;;20.90;13.75;;;18.60;54.50;;;;;;5070898;28;20466;-71
2021/03/24 12:08:00;;;;;;;20.07;13.70;;;18.80;55.60;;;;;;5051459;28;20029;-71
2021/03/24 12:10:34;;;;;;;19.38;13.95;;;19.20;54.70;;;;;;5050263;28;20036;-71
2021/03/24 12:13:11;;;;;;;23.45;14.07;;;19.00;55.70;;;;;;5067478;28;20025;-71
2021/03/24 12:15:39;;;;;;;18.40;14.07;;;19.00;54.80;;;;;;5070249;28;20143;-71
2021/03/24 12:18:13;;;;;;;19.35;14.27;;;19.80;54.80;;;;;;5071173;28;20185;-73
2021/03/24 12:20:57;;;;;;;21.42;13.82;;;19.50;52.30;;;;;;5070859;28;20350;-73
2021/03/24 12:23:25;;;;;;;19.85;12.98;;;20.10;54.60;;;;;;5053216;28;20040;-71
2021/03/24 12:25:54;;;;;;;19.65;13.57;;;19.20;54.80;;;;;;5051959;28;20045;-72
2021/03/24 12:28:26;;;;;;;19.15;13.07;;;19.30;52.50;;;;;;5050830;28;20062;-71
2021/03/24 12:31:00;;;;;;;20.65;13.65;;;19.30;51.80;;;;;;5051041;28;20024;-70
2021/03/24 12:33:27;;;;;;;16.45;11.40;;;19.30;52.60;;;;;;5050487;28;20032;-72
2021/03/24 12:36:08;;;;;;;20.92;14.45;;;20.00;56.10;;;;;;5054979;28;20032;-73
2021/03/24 12:38:45;;;;;;;19.87;13.73;;;19.00;52.00;;;;;;5070747;28;20024;-72
2021/03/24 12:41:12;;;;;;;21.52;13.35;;;18.70;55.30;;;;;;5070829;28;20270;-71
2021/03/24 12:43:41;;;;;;;23.38;14.88;;;19.30;53.10;;;;;;5053077;28;20028;-73
2021/03/24 12:46:11;;;;;;;24.27;15.30;;;19.40;53.60;;;;;;5070400;28;20032;-73
2021/03/24 12:48:45;;;;;;;22.23;15.02;;;19.70;51.80;;;;;;5070045;28;20139;-72
2021/03/24 12:51:17;;;;;;;19.60;14.48;;;19.60;52.00;;;;;;5070402;28;20028;-72
2021/03/24 12:53:49;;;;;;;18.30;13.60;;;19.40;53.70;;;;;;5068890;28;20446;-72
2021/03/24 12:56:36;;;;;;;21.23;15.05;;;19.90;52.60;;;;;;5070145;28;20127;-71
2021/03/24 12:59:19;;;;;;;19.98;15.30;;;19.50;51.20;;;;;;5070478;28;20047;-72
2021/03/24 13:02:06;;;;;;;22.35;15.00;;;19.10;52.70;;;;;;5068796;28;20028;-73
2021/03/24 13:04:59;;;;;;;22.25;15.25;;;19.80;53.20;;;;;;5068982;28;20182;-71
2021/03/24 13:08:12;;;;;;;20.95;15.27;;;19.90;51.40;;;;;;5065514;28;20017;-71
2021/03/24 13:10:47;;;;;;;21.30;14.90;;;19.80;51.40;;;;;;5026973;28;20386;-72
2021/03/24 13:13:26;;;;;;;20.95;15.02;;;19.70;51.10;;;;;;5050191;28;20104;-71
2021/03/24 13:16:02;;;;;;;22.95;14.05;;;19.10;52.60;;;;;;5062761;28;20070;-73
2021/03/24 13:18:58;;;;;;;18.80;13.38;;;19.90;53.20;;;;;;5069599;28;20106;-72
2021/03/24 13:21:47;;;;;;;19.08;14.95;;;20.60;50.30;;;;;;5071561;28;20025;-70
2021/03/24 13:25:07;;;;;;;24.60;14.68;;;19.60;51.40;;;;;;5069719;28;20369;-73
2021/03/24 13:27:53;;;;;;;17.52;13.05;;;19.70;50.90;;;;;;5011242;28;20083;-72
2021/03/24 13:30:28;;;;;;;22.30;13.18;;;20.20;52.50;;;;;;5074702;28;20071;-72